createdAt,value
2024-04-19T00:00:40.317Z,12.4
2024-04-19T00:15:39.150Z,11.5
2024-04-19T00:30:40.309Z,17.9
2024-04-19T00:45:40.593Z,19.7
2024-04-19T01:00:41.332Z,22.8
2024-04-19T01:01:26.936Z,23
2024-04-19T01:15:41.722Z,18.3
2024-04-19T01:30:42.532Z,19.6
2024-04-19T01:45:43.635Z,18.2
2024-04-19T02:00:44.108Z,19.3
2024-04-19T02:15:45.642Z,23
2024-04-19T02:30:47.939Z,21
2024-04-19T02:45:56.550Z,20.3
2024-04-19T03:00:47.232Z,20.1
2024-04-19T03:15:47.680Z,19.9
2024-04-19T03:30:48.648Z,24.9
2024-04-19T03:45:49.835Z,30.6
2024-04-19T04:00:52.204Z,28.4
2024-04-19T04:15:50.985Z,24.3
2024-04-19T04:30:50.879Z,21.9
2024-04-19T04:40:08.547Z,20.9
2024-04-19T04:55:08.446Z,18.2
2024-04-19T05:10:08.966Z,15.8
2024-04-19T05:25:09.962Z,15.7
2024-04-19T05:40:10.018Z,13.8
2024-04-19T05:55:10.904Z,11
2024-04-19T06:10:16.003Z,14.8
2024-04-19T06:25:12.266Z,15.1
2024-04-19T06:40:16.340Z,11.8
2024-04-19T06:55:14.021Z,12.6
2024-04-19T07:10:14.909Z,11.5
2024-04-19T07:25:15.015Z,13.4
2024-04-19T07:40:15.898Z,13.5
2024-04-19T07:55:19.930Z,19.3
2024-04-19T08:10:17.144Z,16.8
2024-04-19T08:40:19.394Z,12.4
2024-04-19T08:55:19.036Z,12.8
2024-04-19T09:10:21.505Z,14.6
2024-04-19T09:25:21.433Z,13.1
2024-04-19T09:40:28.056Z,10
2024-04-19T09:55:23.825Z,9.1
2024-04-19T10:10:23.625Z,8.6
2024-04-19T10:25:33.416Z,12.4
2024-04-19T10:40:23.088Z,6.8
2024-04-19T10:55:25.262Z,4.9
2024-04-19T11:10:25.014Z,5.8
2024-04-19T11:25:25.469Z,3.3
2024-04-19T11:40:26.966Z,3.4
2024-04-19T11:55:27.459Z,1.8
2024-04-19T12:10:27.413Z,1.4
2024-04-19T12:25:41.148Z,3
2024-04-19T12:41:08.612Z,2.7
2024-04-19T12:55:58.498Z,3.3
2024-04-19T13:10:30.110Z,3.9
2024-04-19T13:25:42.365Z,12.6
2024-04-19T13:40:36.017Z,4.4
2024-04-19T13:55:38.320Z,4.9
2024-04-19T14:10:33.274Z,3.8
2024-04-19T14:25:39.599Z,3.6
2024-04-19T14:40:34.183Z,5.6
2024-04-19T14:55:34.246Z,3.6
2024-04-19T15:10:35.199Z,4
2024-04-19T15:25:38.487Z,3.7
2024-04-19T15:40:41.716Z,8.5
2024-04-19T15:55:39.874Z,5.2
2024-04-19T16:10:40.475Z,3.2
2024-04-19T16:25:45.369Z,3.4
2024-04-19T16:40:42.385Z,3.3
2024-04-19T16:55:41.181Z,1.7
2024-04-19T17:10:40.688Z,1.7
2024-04-19T17:25:42.494Z,2.4
2024-04-19T17:40:44.818Z,2.6
2024-04-19T17:55:45.187Z,3.3
2024-04-19T18:10:44.511Z,4.9
2024-04-19T18:25:50.499Z,2.4
2024-04-19T18:41:05.781Z,1.4
2024-04-19T18:55:50.039Z,2.5
2024-04-19T19:10:51.121Z,2.4
2024-04-19T19:26:04.849Z,2.8
2024-04-19T19:40:47.864Z,2.2
2024-04-19T19:55:49.060Z,1.4
2024-04-19T20:10:55.561Z,0.9
2024-04-19T20:26:05.224Z,0.7
2024-04-19T20:41:12.071Z,0.2
2024-04-19T20:56:06.192Z,0.2
2024-04-19T21:10:54.696Z,0.1
2024-04-19T21:25:53.746Z,0.2
2024-04-19T21:40:53.331Z,1.2
2024-04-19T21:55:55.248Z,0.9
2024-04-19T22:00:39.327Z,1.6
2024-04-19T22:15:38.289Z,2.5
2024-04-19T22:30:37.879Z,2.5
2024-04-19T22:45:45.475Z,3
2024-04-19T23:15:49.985Z,3.7
2024-04-19T23:30:51.174Z,2.9
2024-04-19T23:45:52.493Z,0.5
